Time;durP1;ratioP1;P1;durP2;ratioP2;P2;SDS_P1;SDS_P2;PMS_P1;PMS_P2;Temp;Humidity;BMP_temperature;BMP_pressure;BME280_temperature;BME280_humidity;BME280_pressure;Samples;Min_cycle;Max_cycle;Signal;HPM_P1;HPM_P2
2023/05/16 00:00:24;;;;;;;168.60;34.37;;;;;;;12.74;91.06;97796.19;4157271;28;20631;-86
2023/05/16 00:02:29;;;;;;;143.17;29.27;;;;;;;12.74;91.37;97799.63;4168736;28;20672;-86
2023/05/16 00:04:32;;;;;;;181.70;34.13;;;;;;;12.75;90.35;97797.88;4170384;28;20638;-86
2023/05/16 00:06:36;;;;;;;146.30;29.47;;;;;;;12.74;92.21;97804.88;4172214;28;20729;-86
2023/05/16 00:08:39;;;;;;;150.37;38.67;;;;;;;12.75;91.03;97798.69;4175734;28;21205;-86
2023/05/16 00:10:42;;;;;;;157.87;35.07;;;;;;;12.70;90.88;97793.00;4172819;28;20618;-86
2023/05/16 00:12:50;;;;;;;131.57;34.53;;;;;;;12.71;90.55;97793.81;4168718;28;20630;-86
2023/05/16 00:14:54;;;;;;;173.87;30.00;;;;;;;12.67;91.41;97786.34;4169783;28;20736;-86
2023/05/16 00:16:57;;;;;;;154.13;34.47;;;;;;;12.64;91.05;97791.84;4167593;28;20742;-86
2023/05/16 00:19:03;;;;;;;160.40;34.43;;;;;;;12.62;90.66;97785.91;4165725;28;20641;-86
2023/05/16 00:21:06;;;;;;;161.67;36.87;;;;;;;12.59;90.82;97796.63;4166222;28;20997;-86
2023/05/16 00:23:09;;;;;;;179.57;34.03;;;;;;;12.56;90.14;97796.88;4164522;28;20774;-86
2023/05/16 00:25:12;;;;;;;158.90;34.47;;;;;;;12.50;91.07;97795.56;4163073;28;20639;-86
2023/05/16 00:27:16;;;;;;;156.53;39.03;;;;;;;12.48;90.10;97794.00;4167224;28;20665;-87
2023/05/16 00:29:19;;;;;;;132.10;33.40;;;;;;;12.47;91.20;97802.84;4167320;28;21058;-86
2023/05/16 00:31:22;;;;;;;147.30;37.23;;;;;;;12.44;91.13;97803.09;4170267;28;20643;-86
2023/05/16 00:33:26;;;;;;;153.90;35.57;;;;;;;12.43;90.36;97796.19;4163629;28;21085;-86
2023/05/16 00:35:31;;;;;;;175.53;39.53;;;;;;;12.42;90.52;97800.59;4171291;28;20653;-86
2023/05/16 00:37:34;;;;;;;170.13;34.57;;;;;;;12.44;92.63;97803.09;4169134;28;21015;-86
2023/05/16 00:39:37;;;;;;;130.70;35.70;;;;;;;12.44;91.83;97803.09;4153985;28;21305;-86
2023/05/16 00:41:40;;;;;;;158.20;35.03;;;;;;;12.42;92.85;97802.38;4153672;28;20654;-86
2023/05/16 00:43:43;;;;;;;190.90;35.70;;;;;;;12.37;90.84;97802.75;4154226;28;20635;-86
2023/05/16 00:45:46;;;;;;;180.80;37.50;;;;;;;12.32;91.91;97797.03;4185457;28;20649;-86
2023/05/16 00:47:50;;;;;;;154.90;36.07;;;;;;;12.29;90.91;97789.44;4165519;28;20662;-86
2023/05/16 00:49:53;;;;;;;170.43;41.07;;;;;;;12.26;91.54;97799.31;4169684;28;20641;-86
2023/05/16 00:51:58;;;;;;;129.17;32.77;;;;;;;12.21;92.01;97798.84;4168723;28;20689;-86
2023/05/16 00:54:02;;;;;;;163.23;35.93;;;;;;;12.16;90.67;97793.13;4169304;28;21185;-86
2023/05/16 00:56:06;;;;;;;164.37;34.67;;;;;;;12.12;91.39;97793.50;4164156;28;20636;-86
2023/05/16 00:58:09;;;;;;;179.97;37.10;;;;;;;12.11;90.58;97790.06;4171554;28;20631;-86
2023/05/16 01:00:14;;;;;;;199.30;39.47;;;;;;;12.09;92.47;97792.00;4144874;28;21001;-86
2023/05/16 01:02:18;;;;;;;221.00;36.57;;;;;;;12.09;92.78;97788.53;4169471;28;20619;-86
2023/05/16 01:04:22;;;;;;;170.27;37.83;;;;;;;12.09;91.90;97786.75;4170775;28;20638;-86
2023/05/16 01:06:25;;;;;;;203.87;41.53;;;;;;;12.10;92.30;97783.16;4168960;28;20720;-86
2023/05/16 01:08:30;;;;;;;221.63;40.57;;;;;;;12.11;92.54;97784.84;4160387;28;20709;-86
2023/05/16 01:10:44;;;;;;;162.10;37.43;;;;;;;12.11;92.85;97786.63;4156273;28;20635;-87
2023/05/16 01:12:54;;;;;;;182.63;40.77;;;;;;;12.11;94.06;97790.06;4160789;28;21174;-87
2023/05/16 01:15:04;;;;;;;187.63;42.27;;;;;;;12.12;92.33;97786.50;4159819;28;21028;-86
2023/05/16 01:17:16;;;;;;;238.53;43.40;;;;;;;12.11;91.74;97789.25;4156470;28;21020;-86
2023/05/16 01:19:32;;;;;;;178.93;42.47;;;;;;;12.07;91.77;97782.59;4179516;28;20628;-87
2023/05/16 01:21:43;;;;;;;175.10;40.17;;;;;;;12.07;93.02;97791.28;4173421;28;20634;-86
2023/05/16 01:23:53;;;;;;;178.80;41.50;;;;;;;12.03;93.01;97792.47;4154578;28;20633;-86
2023/05/16 01:25:58;;;;;;;236.93;42.60;;;;;;;12.01;92.68;97778.69;4156992;28;20631;-86
2023/05/16 01:28:02;;;;;;;216.80;39.63;;;;;;;12.00;91.10;97791.88;4165971;28;20633;-86
2023/05/16 01:30:15;;;;;;;152.77;34.00;;;;;;;11.99;91.36;97796.25;4160253;28;20649;-86
2023/05/16 01:32:19;;;;;;;206.47;43.23;;;;;;;11.97;92.27;97790.34;4166094;28;20612;-86
2023/05/16 01:34:22;;;;;;;202.47;41.77;;;;;;;11.95;90.41;97783.56;4157542;28;20638;-86
2023/05/16 01:36:26;;;;;;;204.97;39.37;;;;;;;11.92;90.55;97791.63;4174018;28;20627;-86
2023/05/16 01:38:33;;;;;;;175.80;39.67;;;;;;;11.89;91.52;97784.88;4153076;28;20627;-87
2023/05/16 01:40:40;;;;;;;197.77;39.60;;;;;;;11.85;91.91;97791.28;4154375;28;21165;-86
2023/05/16 01:42:45;;;;;;;183.37;42.40;;;;;;;11.81;90.54;97789.03;4167963;28;20629;-86
2023/05/16 01:44:55;;;;;;;238.77;39.10;;;;;;;11.80;91.76;97790.84;4175215;28;20628;-86
2023/05/16 01:47:02;;;;;;;173.53;40.30;;;;;;;11.80;91.95;97790.84;4161079;28;20712;-86
2023/05/16 01:49:15;;;;;;;225.03;38.40;;;;;;;11.80;91.45;97798.66;4162393;28;20631;-86
2023/05/16 01:51:21;;;;;;;217.37;45.43;;;;;;;11.78;91.07;97795.31;4175356;28;20626;-86
2023/05/16 01:53:28;;;;;;;190.37;42.67;;;;;;;11.75;91.44;97786.09;4162005;28;21291;-86
2023/05/16 01:55:37;;;;;;;195.10;42.80;;;;;;;11.69;91.56;97784.75;4156982;28;20692;-86
2023/05/16 01:57:41;;;;;;;258.43;45.23;;;;;;;11.65;91.41;97787.72;4170601;28;20663;-86
2023/05/16 01:59:45;;;;;;;172.77;42.17;;;;;;;11.63;90.08;97787.03;4173049;28;20640;-86
2023/05/16 02:01:49;;;;;;;209.40;41.60;;;;;;;11.60;90.85;97790.69;4174278;28;20636;-86
2023/05/16 02:03:52;;;;;;;225.63;41.80;;;;;;;11.60;91.04;97792.50;4165804;28;20621;-86
2023/05/16 02:05:56;;;;;;;202.80;49.00;;;;;;;11.62;91.35;97791.44;4160185;28;20653;-87
2023/05/16 02:07:59;;;;;;;238.20;39.17;;;;;;;11.61;90.20;97797.59;4161133;28;20758;-86
2023/05/16 02:10:03;;;;;;;194.77;39.70;;;;;;;11.56;91.25;97794.50;4170741;28;20661;-86
2023/05/16 02:12:10;;;;;;;195.93;39.33;;;;;;;11.55;90.24;97803.28;4166888;28;20730;-86
2023/05/16 02:14:13;;;;;;;248.70;48.93;;;;;;;11.54;92.52;97806.00;4167737;28;20683;-86
2023/05/16 02:16:16;;;;;;;249.97;40.43;;;;;;;11.55;91.01;97805.06;4156480;28;20741;-86
2023/05/16 02:18:22;;;;;;;178.53;42.43;;;;;;;11.51;90.46;97801.84;4176555;28;20625;-86
2023/05/16 02:20:25;;;;;;;254.07;51.43;;;;;;;11.49;90.41;97800.31;4155324;28;21329;-86
2023/05/16 02:22:29;;;;;;;205.10;46.30;;;;;;;11.47;91.68;97803.06;4159816;28;20637;-86
2023/05/16 02:24:32;;;;;;;218.70;43.27;;;;;;;11.47;92.39;97802.19;4170153;28;21178;-86
2023/05/16 02:26:36;;;;;;;234.97;47.20;;;;;;;11.46;92.13;97805.75;4171049;28;20626;-87
2023/05/16 02:28:39;;;;;;;266.67;50.30;;;;;;;11.43;92.31;97805.97;4161519;28;20645;-86
2023/05/16 02:30:43;;;;;;;207.90;46.67;;;;;;;11.41;91.28;97805.25;4157461;28;21020;-86
2023/05/16 02:32:47;;;;;;;255.00;41.13;;;;;;;11.38;91.21;97802.88;4159401;28;20629;-87
2023/05/16 02:34:53;;;;;;;198.30;46.60;;;;;;;11.33;90.21;97799.78;4169192;28;20645;-86
2023/05/16 02:36:56;;;;;;;265.43;54.60;;;;;;;11.30;91.07;97800.00;4162010;28;20626;-86
2023/05/16 02:38:59;;;;;;;262.37;52.70;;;;;;;11.30;90.76;97807.84;4150391;28;20626;-87
2023/05/16 02:41:02;;;;;;;192.57;46.97;;;;;;;11.29;91.20;97804.41;4157295;28;20669;-86
2023/05/16 02:43:05;;;;;;;189.80;47.27;;;;;;;11.24;92.03;97803.09;4155831;28;20673;-86
2023/05/16 02:45:09;;;;;;;271.30;52.80;;;;;;;11.18;90.73;97797.50;4165738;28;20744;-86
2023/05/16 02:47:12;;;;;;;303.60;58.67;;;;;;;11.15;90.04;97793.34;4158338;28;20758;-86
2023/05/16 02:49:15;;;;;;;266.50;52.60;;;;;;;11.12;91.78;97796.19;4154194;28;20717;-87
2023/05/16 02:51:23;;;;;;;282.33;47.57;;;;;;;11.09;91.28;97795.59;4156851;28;21240;-86
2023/05/16 02:53:26;;;;;;;240.40;52.97;;;;;;;11.11;91.51;97799.75;4154930;28;20626;-86
2023/05/16 02:55:29;;;;;;;299.03;59.53;;;;;;;11.14;92.00;97799.53;4173868;28;20617;-86
2023/05/16 02:57:32;;;;;;;238.63;58.53;;;;;;;11.18;91.91;97798.31;4170760;28;21367;-87
2023/05/16 02:59:36;;;;;;;296.93;54.67;;;;;;;11.21;92.55;97805.94;4155574;28;20626;-86
2023/05/16 03:01:39;;;;;;;262.50;49.93;;;;;;;11.19;91.89;97801.78;4176123;28;20781;-87
2023/05/16 03:03:42;;;;;;;351.90;62.77;;;;;;;11.24;92.26;97807.47;4159404;28;20688;-86
2023/05/16 03:05:46;;;;;;;276.90;56.20;;;;;;;11.24;93.61;97805.69;4170569;28;20657;-86
2023/05/16 03:07:50;;;;;;;295.03;53.77;;;;;;;11.23;92.20;97811.88;4158095;28;20685;-86
2023/05/16 03:09:53;;;;;;;263.10;60.47;;;;;;;11.16;92.44;97802.03;4168716;28;21359;-86
2023/05/16 03:11:58;;;;;;;275.37;50.50;;;;;;;11.07;92.14;97806.13;4154923;28;21117;-86
2023/05/16 03:14:01;;;;;;;176.20;35.97;;;;;;;11.03;91.70;97817.75;4172325;28;20623;-86
2023/05/16 03:16:05;;;;;;;81.60;22.20;;;;;;;11.03;92.89;97809.09;4175267;28;21263;-87
2023/05/16 03:18:10;;;;;;;294.80;59.53;;;;;;;11.04;92.43;97814.19;4148872;28;21198;-86
2023/05/16 03:20:14;;;;;;;315.97;58.13;;;;;;;11.06;92.21;97809.69;4168189;28;20626;-86
2023/05/16 03:22:17;;;;;;;286.10;61.70;;;;;;;11.06;93.06;97801.84;4170323;28;20665;-86
2023/05/16 03:24:21;;;;;;;335.03;55.07;;;;;;;11.08;92.12;97805.19;4154064;28;20734;-86
2023/05/16 03:26:25;;;;;;;267.40;57.97;;;;;;;11.09;93.02;97809.47;4168989;28;20633;-86
2023/05/16 03:28:28;;;;;;;291.53;55.83;;;;;;;11.10;91.99;97818.97;4158706;28;20688;-87
2023/05/16 03:30:31;;;;;;;244.27;51.70;;;;;;;11.08;92.01;97818.25;4160787;28;20677;-86
2023/05/16 03:32:34;;;;;;;267.60;52.83;;;;;;;11.02;93.15;97823.94;4162902;28;21250;-86
2023/05/16 03:34:37;;;;;;;240.43;56.67;;;;;;;11.00;93.85;97819.75;4162546;28;21213;-86
2023/05/16 03:36:41;;;;;;;293.33;51.67;;;;;;;10.98;92.49;97825.09;4149832;28;20635;-86
2023/05/16 03:38:44;;;;;;;244.33;53.17;;;;;;;10.97;92.64;97825.19;4173035;28;20644;-87
2023/05/16 03:40:49;;;;;;;264.70;56.20;;;;;;;10.97;93.06;97819.97;4180166;28;20681;-86
2023/05/16 03:42:52;;;;;;;284.27;58.37;;;;;;;10.99;93.49;97824.16;4169472;28;21248;-87
2023/05/16 03:44:55;;;;;;;368.90;61.37;;;;;;;11.01;93.97;97829.25;4151215;28;20641;-87
2023/05/16 03:46:58;;;;;;;260.70;52.87;;;;;;;11.02;95.29;97821.31;4153656;28;20632;-86
2023/05/16 03:49:01;;;;;;;299.20;51.50;;;;;;;11.04;93.61;97827.25;4159660;28;20668;-87
2023/05/16 03:51:04;;;;;;;280.23;51.20;;;;;;;11.08;93.92;97833.06;4168325;28;20663;-86
2023/05/16 03:53:08;;;;;;;264.37;48.40;;;;;;;11.12;94.96;97827.50;4169170;28;20686;-87
2023/05/16 03:55:13;;;;;;;247.43;52.23;;;;;;;11.16;95.05;97818.50;4144279;28;20700;-86
2023/05/16 03:57:18;;;;;;;265.27;51.87;;;;;;;11.21;93.32;97815.53;4171997;28;20670;-86
2023/05/16 03:59:21;;;;;;;317.17;53.17;;;;;;;11.22;93.38;97827.66;4160384;28;21206;-87
2023/05/16 04:01:24;;;;;;;264.83;55.50;;;;;;;11.17;95.08;97825.41;4173363;28;20995;-87
2023/05/16 04:03:29;;;;;;;187.23;48.13;;;;;;;11.23;93.87;97830.16;4154754;28;20725;-86
2023/05/16 04:05:32;;;;;;;288.90;56.00;;;;;;;11.24;94.93;97837.03;4157362;28;20658;-86
2023/05/16 04:07:35;;;;;;;253.37;50.77;;;;;;;11.25;95.13;97843.09;4154963;28;20672;-87
2023/05/16 04:09:38;;;;;;;247.73;50.13;;;;;;;11.27;94.22;97834.19;4174568;28;21047;-87
2023/05/16 04:11:42;;;;;;;260.47;50.60;;;;;;;11.29;94.83;97840.97;4159727;28;20626;-87
2023/05/16 04:13:46;;;;;;;272.20;49.30;;;;;;;11.33;93.28;97836.34;4155401;28;20679;-86
2023/05/16 04:15:49;;;;;;;274.07;47.03;;;;;;;11.38;94.46;97845.50;4158593;28;21070;-87
2023/05/16 04:17:53;;;;;;;237.87;49.13;;;;;;;11.44;94.84;97844.19;4165800;28;20983;-87
2023/05/16 04:19:56;;;;;;;211.33;43.40;;;;;;;11.47;94.56;97849.19;4173388;28;20667;-87
2023/05/16 04:21:59;;;;;;;291.80;48.97;;;;;;;11.52;93.72;97852.31;4154425;28;20630;-87
2023/05/16 04:24:02;;;;;;;248.13;40.37;;;;;;;11.56;94.92;97853.72;4147801;28;21341;-87
2023/05/16 04:26:05;;;;;;;208.33;40.07;;;;;;;11.58;95.57;97857.09;4173983;28;20632;-87
2023/05/16 04:28:09;;;;;;;206.77;44.30;;;;;;;11.57;95.69;97853.63;4159562;28;20641;-87
2023/05/16 04:30:14;;;;;;;258.13;45.33;;;;;;;11.58;95.31;97863.13;4166305;28;20628;-87
2023/05/16 04:32:17;;;;;;;255.47;48.13;;;;;;;11.54;94.95;97860.88;4166368;28;20626;-87
2023/05/16 04:34:21;;;;;;;200.37;48.30;;;;;;;11.51;94.29;97861.09;4154653;28;21206;-87
2023/05/16 04:36:28;;;;;;;224.40;42.10;;;;;;;11.49;93.54;97866.44;4167584;28;20678;-87
2023/05/16 04:38:32;;;;;;;228.00;47.27;;;;;;;11.52;93.41;97870.59;4157825;28;21047;-87
2023/05/16 04:40:36;;;;;;;232.37;50.23;;;;;;;11.53;95.11;97867.03;4157138;28;20657;-87
2023/05/16 04:42:39;;;;;;;250.97;50.90;;;;;;;11.55;94.89;97867.75;4166826;28;21123;-87
2023/05/16 04:44:43;;;;;;;227.70;45.63;;;;;;;11.58;94.10;97873.56;4153570;28;20641;-87
2023/05/16 04:46:48;;;;;;;311.57;50.70;;;;;;;11.63;96.10;97868.81;4153063;28;21071;-87
2023/05/16 04:48:51;;;;;;;202.97;49.77;;;;;;;11.66;96.00;97870.38;4160378;28;20649;-85
2023/05/16 04:50:54;;;;;;;266.87;46.03;;;;;;;11.71;94.05;97873.47;4168970;28;21223;-85
2023/05/16 04:52:57;;;;;;;228.40;46.03;;;;;;;11.76;94.43;97875.59;4174011;28;20685;-85
2023/05/16 04:55:01;;;;;;;210.93;45.37;;;;;;;11.81;95.35;97878.69;4170069;28;20637;-85
2023/05/16 04:57:04;;;;;;;228.07;39.90;;;;;;;11.86;96.04;97879.19;4170148;28;20716;-84
2023/05/16 04:59:07;;;;;;;215.23;40.13;;;;;;;11.88;94.23;97874.69;4157888;28;21205;-85
2023/05/16 05:01:10;;;;;;;240.80;43.70;;;;;;;11.90;94.43;97880.59;4167598;28;21036;-84
2023/05/16 05:03:15;;;;;;;211.33;43.17;;;;;;;11.91;93.07;97884.88;4160033;28;20626;-85
2023/05/16 05:05:19;;;;;;;180.90;40.37;;;;;;;11.96;95.54;97880.13;4167275;28;20713;-85
2023/05/16 05:07:26;;;;;;;235.20;44.73;;;;;;;12.01;95.15;97882.41;4163796;28;20633;-85
2023/05/16 05:09:30;;;;;;;195.70;36.30;;;;;;;12.06;95.01;97890.72;4189861;28;20748;-86
2023/05/16 05:11:33;;;;;;;229.17;42.23;;;;;;;12.08;94.92;97881.81;4158707;28;20655;-85
2023/05/16 05:13:36;;;;;;;178.83;40.57;;;;;;;12.11;94.45;97884.19;4170123;28;20642;-85
2023/05/16 05:15:39;;;;;;;213.37;39.20;;;;;;;12.14;93.34;97888.34;4146550;28;20714;-85
2023/05/16 05:17:42;;;;;;;196.17;43.20;;;;;;;12.17;94.97;97881.09;4175062;28;20983;-85
2023/05/16 05:19:47;;;;;;;220.93;43.30;;;;;;;12.20;92.87;97877.41;4172972;28;21267;-85
2023/05/16 05:21:50;;;;;;;181.57;41.97;;;;;;;12.23;94.67;97878.00;4171876;28;20635;-85
2023/05/16 05:23:53;;;;;;;186.70;41.00;;;;;;;12.24;93.59;97874.44;4156259;28;20638;-86
2023/05/16 05:25:56;;;;;;;156.30;36.10;;;;;;;12.25;93.62;97876.09;4172967;28;20724;-85
2023/05/16 05:27:59;;;;;;;223.17;39.47;;;;;;;12.28;94.41;97873.22;4149620;28;20656;-85
2023/05/16 05:30:03;;;;;;;161.57;40.70;;;;;;;12.31;94.65;97873.00;4155780;28;21532;-86
2023/05/16 05:32:06;;;;;;;240.27;41.43;;;;;;;12.35;94.55;97879.66;4169491;28;20802;-86
2023/05/16 05:34:10;;;;;;;203.57;36.27;;;;;;;12.39;94.95;97883.69;4177205;28;20627;-86
2023/05/16 05:36:14;;;;;;;195.70;46.57;;;;;;;12.43;94.48;97882.50;4177351;28;20634;-86
2023/05/16 05:38:18;;;;;;;181.67;34.93;;;;;;;12.46;93.89;97882.25;4174938;28;20677;-86
2023/05/16 05:40:21;;;;;;;168.50;39.03;;;;;;;12.48;93.82;97888.19;4155040;28;20664;-86
2023/05/16 05:42:24;;;;;;;215.20;38.43;;;;;;;12.46;94.24;97888.34;4172958;28;20630;-85
2023/05/16 05:44:27;;;;;;;166.23;32.33;;;;;;;12.47;95.54;97897.00;4157777;28;20667;-85
2023/05/16 05:46:30;;;;;;;147.83;37.53;;;;;;;12.50;95.15;97899.38;4161346;28;21186;-84
2023/05/16 05:48:33;;;;;;;183.43;35.20;;;;;;;12.53;95.46;97907.81;4149451;28;21263;-84
2023/05/16 05:50:37;;;;;;;179.10;37.07;;;;;;;12.56;95.38;97906.75;4120714;28;20689;-85
2023/05/16 05:52:42;;;;;;;173.13;35.97;;;;;;;12.60;95.54;97905.53;4154439;28;20676;-85
2023/05/16 05:54:46;;;;;;;188.07;35.40;;;;;;;12.62;95.96;97904.47;4157668;28;20653;-86
2023/05/16 05:56:49;;;;;;;165.33;39.53;;;;;;;12.67;97.17;97909.31;4172189;28;20626;-86
2023/05/16 05:58:52;;;;;;;175.53;37.77;;;;;;;12.68;96.15;97910.03;4167843;28;20708;-85
2023/05/16 06:00:55;;;;;;;190.47;39.80;;;;;;;12.71;97.15;97915.03;4160751;28;20645;-85
2023/05/16 06:02:58;;;;;;;135.20;33.43;;;;;;;12.75;96.96;97919.06;4158151;28;20705;-85
2023/05/16 06:05:01;;;;;;;188.60;35.20;;;;;;;12.77;97.22;97919.75;4170321;28;21013;-85
2023/05/16 06:07:05;;;;;;;147.80;36.17;;;;;;;12.78;97.77;97920.63;4175080;28;20699;-85
2023/05/16 06:09:11;;;;;;;193.87;38.50;;;;;;;12.81;97.50;97926.44;4187458;28;20720;-85
2023/05/16 06:11:14;;;;;;;173.97;35.40;;;;;;;12.88;97.72;97935.47;4173780;28;21252;-85
2023/05/16 06:13:17;;;;;;;234.03;40.33;;;;;;;12.95;98.50;97925.38;4158682;28;20619;-85
2023/05/16 06:15:20;;;;;;;182.47;42.50;;;;;;;13.04;98.23;97922.81;4158507;28;21028;-85
2023/05/16 06:17:23;;;;;;;161.53;35.37;;;;;;;13.15;99.34;97927.19;4146031;28;20631;-86
2023/05/16 06:19:26;;;;;;;213.20;44.13;;;;;;;13.24;99.12;97929.91;4156060;28;20760;-86
2023/05/16 06:21:32;;;;;;;162.93;35.93;;;;;;;13.31;98.60;97934.50;4138278;28;20641;-85
2023/05/16 06:23:35;;;;;;;244.77;42.60;;;;;;;13.43;98.69;97935.31;4117986;28;20716;-86
2023/05/16 06:25:41;;;;;;;274.80;41.80;;;;;;;13.52;98.23;97940.63;4148910;28;22859;-86
2023/05/16 06:27:44;;;;;;;319.07;38.93;;;;;;;13.61;97.40;97939.84;4112894;28;20641;-85
2023/05/16 06:29:47;;;;;;;342.03;48.07;;;;;;;13.68;97.47;97941.84;4115998;28;20781;-86
2023/05/16 06:31:50;;;;;;;362.83;45.23;;;;;;;13.77;97.19;97948.94;4149335;28;20764;-86
2023/05/16 06:33:55;;;;;;;300.73;41.83;;;;;;;13.84;97.18;97946.63;4114931;28;20626;-86
2023/05/16 06:35:58;;;;;;;458.23;45.77;;;;;;;13.90;97.61;97944.31;4148579;28;21083;-86
2023/05/16 06:38:01;;;;;;;379.37;42.40;;;;;;;13.97;97.61;97953.34;4110290;28;20638;-85
2023/05/16 06:40:06;;;;;;;360.03;39.73;;;;;;;14.05;98.18;97950.94;4142858;28;20649;-85
2023/05/16 06:42:12;;;;;;;423.63;49.83;;;;;;;14.09;99.12;97949.72;4129828;28;20745;-85
2023/05/16 06:44:17;;;;;;;433.37;45.40;;;;;;;14.15;98.00;97957.09;4132779;28;20626;-85
2023/05/16 06:46:20;;;;;;;434.00;51.70;;;;;;;14.21;96.97;97953.94;4166101;28;21126;-84
2023/05/16 06:48:25;;;;;;;376.50;42.37;;;;;;;14.25;96.20;97950.94;4129347;28;20697;-85
2023/05/16 06:50:28;;;;;;;372.83;43.20;;;;;;;14.33;95.74;97958.16;4147161;28;20671;-87
2023/05/16 06:52:32;;;;;;;358.73;38.53;;;;;;;14.30;93.37;97950.53;4144287;28;21218;-88
2023/05/16 06:54:35;;;;;;;385.33;40.93;;;;;;;14.28;94.12;97952.44;4143038;28;20646;-87
2023/05/16 06:56:38;;;;;;;463.80;41.50;;;;;;;14.24;93.19;97954.50;4171120;28;20720;-87
2023/05/16 06:58:42;;;;;;;472.00;39.23;;;;;;;14.32;94.54;97956.47;4174927;28;20675;-87
2023/05/16 07:00:46;;;;;;;418.90;49.13;;;;;;;14.36;94.45;97947.38;4158256;28;21208;-87
2023/05/16 07:02:49;;;;;;;403.43;40.43;;;;;;;14.32;94.16;97952.03;4169837;28;20624;-87
2023/05/16 07:04:52;;;;;;;465.73;43.23;;;;;;;14.36;94.56;97950.00;4175830;28;20666;-87
2023/05/16 07:06:55;;;;;;;422.17;48.97;;;;;;;14.41;93.20;97951.25;4171913;28;20641;-87
2023/05/16 07:08:59;;;;;;;395.50;43.77;;;;;;;14.41;93.40;97951.25;4160466;28;20723;-87
2023/05/16 07:11:02;;;;;;;1009.17;46.00;;;;;;;14.32;91.49;97956.47;4169795;28;20690;-88
2023/05/16 07:13:05;;;;;;;447.77;42.07;;;;;;;14.30;91.78;97953.97;4170137;28;21072;-88
2023/05/16 07:15:11;;;;;;;548.30;43.37;;;;;;;14.37;91.39;97951.66;4174603;28;20650;-88
2023/05/16 07:17:17;;;;;;;547.43;57.07;;;;;;;14.43;91.19;97959.81;4173113;28;20717;-87
2023/05/16 07:19:20;;;;;;;556.53;47.07;;;;;;;14.45;89.38;97947.41;4159312;28;20623;-87
2023/05/16 07:21:24;;;;;;;615.33;36.00;;;;;;;14.41;87.52;97946.00;4168574;28;20640;-88
2023/05/16 07:23:27;;;;;;;332.63;25.47;;;;;;;14.43;88.16;97948.50;4164061;28;21172;-87
2023/05/16 07:25:30;;;;;;;385.97;44.97;;;;;;;14.44;88.64;97945.75;4158926;28;21198;-88
2023/05/16 07:27:33;;;;;;;462.87;51.43;;;;;;;14.60;88.73;97948.72;4166124;28;20666;-87
2023/05/16 07:29:37;;;;;;;748.30;58.93;;;;;;;14.55;87.15;97929.09;4167950;28;21025;-87
2023/05/16 07:31:41;;;;;;;401.17;47.03;;;;;;;14.60;87.01;97941.66;4168752;28;20664;-87
2023/05/16 07:33:45;;;;;;;396.47;43.87;;;;;;;14.74;85.90;97943.91;4173386;28;20639;-87
2023/05/16 07:35:49;;;;;;;403.47;43.87;;;;;;;14.84;85.58;97946.56;4172093;28;20649;-87
2023/05/16 07:37:53;;;;;;;449.70;47.60;;;;;;;14.89;86.00;97953.09;4172458;28;20649;-87
2023/05/16 07:39:56;;;;;;;495.87;50.17;;;;;;;14.87;86.56;97947.16;4168779;28;20743;-88
2023/05/16 07:41:59;;;;;;;583.63;41.10;;;;;;;14.87;86.01;97949.78;4169335;28;20739;-87
2023/05/16 07:44:02;;;;;;;351.57;39.77;;;;;;;14.84;86.25;97947.41;4159070;28;20728;-87
2023/05/16 07:46:06;;;;;;;442.63;44.10;;;;;;;14.90;84.56;97946.03;4167975;28;20790;-87
2023/05/16 07:48:10;;;;;;;455.97;41.50;;;;;;;14.89;85.25;97953.09;4165765;28;20647;-87
2023/05/16 07:50:13;;;;;;;384.00;42.90;;;;;;;14.94;84.80;97958.75;4170161;28;20986;-87
2023/05/16 07:52:17;;;;;;;371.37;42.57;;;;;;;14.93;85.46;97959.75;4155670;28;20701;-87
2023/05/16 07:54:20;;;;;;;404.07;40.73;;;;;;;14.81;84.66;97946.88;4167934;28;20663;-87
2023/05/16 07:56:23;;;;;;;369.57;41.87;;;;;;;14.72;84.11;97952.91;4171774;28;21259;-87
2023/05/16 07:58:26;;;;;;;506.27;43.17;;;;;;;14.74;83.86;97959.69;4140517;28;21407;-87
2023/05/16 08:00:29;;;;;;;412.13;40.40;;;;;;;14.73;84.48;97963.28;4167210;28;20628;-87
2023/05/16 08:02:33;;;;;;;402.63;37.77;;;;;;;14.71;84.50;97959.94;4162004;28;20746;-87
2023/05/16 08:04:37;;;;;;;427.70;42.60;;;;;;;14.70;85.58;97963.56;4168001;28;20645;-87
2023/05/16 08:06:40;;;;;;;427.63;44.93;;;;;;;14.66;85.41;97961.31;4174642;28;20659;-87
2023/05/16 08:08:44;;;;;;;286.57;18.90;;;;;;;14.64;84.09;97965.84;4155033;28;20640;-87
2023/05/16 08:10:47;;;;;;;391.27;42.33;;;;;;;14.66;85.91;97964.78;4157286;28;20738;-87
2023/05/16 08:12:53;;;;;;;354.70;39.53;;;;;;;14.66;85.57;97970.03;4167733;28;20638;-87
2023/05/16 08:14:56;;;;;;;435.60;41.97;;;;;;;14.58;83.96;97961.13;4147137;28;21040;-87
2023/05/16 08:17:00;;;;;;;477.20;41.07;;;;;;;14.51;84.62;97967.91;4164752;28;20640;-87
2023/05/16 08:19:04;;;;;;;537.27;39.93;;;;;;;14.30;85.95;97969.72;4155342;28;20763;-87
2023/05/16 08:21:09;;;;;;;381.13;40.97;;;;;;;14.25;86.44;97973.69;4147847;28;20654;-87
2023/05/16 08:23:12;;;;;;;421.23;46.40;;;;;;;14.16;86.32;97983.19;4138522;28;21296;-89
2023/05/16 08:25:15;;;;;;;318.80;44.93;;;;;;;13.98;86.59;97973.38;4137709;28;20641;-86
2023/05/16 08:27:18;;;;;;;473.83;43.83;;;;;;;13.99;87.86;97980.25;4171655;28;20679;-86
2023/05/16 08:29:21;;;;;;;434.50;42.30;;;;;;;13.96;87.63;97983.13;4158827;28;20674;-86
2023/05/16 08:31:24;;;;;;;436.73;42.20;;;;;;;13.98;87.98;97972.53;4147774;28;20689;-86
2023/05/16 08:33:27;;;;;;;224.57;24.33;;;;;;;13.95;88.34;97981.50;4117867;28;20747;-86
2023/05/16 08:35:31;;;;;;;490.03;57.60;;;;;;;13.87;88.21;97988.31;4178807;28;20692;-86
2023/05/16 08:37:36;;;;;;;523.93;47.17;;;;;;;13.78;88.63;97982.03;4164831;28;21068;-85
2023/05/16 08:39:40;;;;;;;389.37;50.57;;;;;;;13.81;89.18;97987.03;4165417;28;20634;-85
2023/05/16 08:41:43;;;;;;;568.57;64.70;;;;;;;13.77;89.39;97990.88;4169795;28;20641;-86
2023/05/16 08:43:46;;;;;;;323.20;24.30;;;;;;;13.73;89.67;97993.88;4168059;28;20664;-86
2023/05/16 08:45:49;;;;;;;463.97;50.67;;;;;;;13.70;90.01;97989.72;4161665;28;20665;-86
2023/05/16 08:47:55;;;;;;;492.37;57.83;;;;;;;13.76;90.21;97997.06;4149432;28;21564;-85
2023/05/16 08:49:58;;;;;;;497.73;48.07;;;;;;;13.77;89.80;97990.88;4152020;28;20641;-83
2023/05/16 08:52:02;;;;;;;430.10;42.50;;;;;;;13.81;90.06;98005.38;4157284;28;20698;-84
2023/05/16 08:54:12;;;;;;;651.67;61.83;;;;;;;13.81;90.09;98008.00;4154685;28;21128;-83
2023/05/16 08:56:17;;;;;;;454.07;48.03;;;;;;;13.84;90.51;98010.38;4153939;28;20689;-83
2023/05/16 08:58:21;;;;;;;682.63;59.63;;;;;;;13.80;89.84;98008.97;4152845;28;20629;-83
2023/05/16 09:00:24;;;;;;;528.53;57.83;;;;;;;13.78;90.03;98018.75;4155479;28;20629;-85
2023/05/16 09:02:28;;;;;;;431.93;45.33;;;;;;;13.81;90.17;98013.25;4171835;28;20623;-84
2023/05/16 09:04:31;;;;;;;559.13;53.60;;;;;;;13.84;90.01;98014.78;4159310;28;20627;-84
2023/05/16 09:06:34;;;;;;;484.70;49.40;;;;;;;13.83;90.01;98019.22;4173285;28;20670;-83
2023/05/16 09:08:38;;;;;;;447.17;44.23;;;;;;;13.89;90.52;98017.88;4158164;28;20637;-83
2023/05/16 09:10:43;;;;;;;388.90;53.30;;;;;;;13.96;90.17;98019.03;4171506;28;20684;-84
2023/05/16 09:12:46;;;;;;;457.17;49.10;;;;;;;14.05;90.42;98020.94;4164589;28;20655;-84
2023/05/16 09:14:51;;;;;;;382.73;47.13;;;;;;;14.08;90.08;98018.88;4116497;28;20625;-84
2023/05/16 09:17:05;;;;;;;472.13;48.30;;;;;;;14.18;89.41;98023.22;4167756;28;21139;-83
2023/05/16 09:19:08;;;;;;;447.03;44.27;;;;;;;14.24;89.96;98025.34;4106401;28;20640;-83
2023/05/16 09:21:12;;;;;;;380.53;50.07;;;;;;;14.29;89.41;98025.78;4169119;28;20667;-84
2023/05/16 09:23:16;;;;;;;442.83;46.10;;;;;;;14.36;88.69;98023.47;4150093;28;20630;-83